Terminal Aerodrome Forecast
Issued by NWS Sterling, VA

Home | Current Version | Previous Version | Text Only | Print | Product List | Glossary On
Versions: 1 2 3 4 5 6 7 8 9 10 11 12 13 14 15 16 17
000
FTUS41 KLWX 231227 AAA
TAFCHO
TAF AMD
KCHO 231227Z 2312/2412 20005KT P6SM SCT100
     FM231300 24006KT P6SM -SHRA BKN050
     FM231500 24006KT P6SM -SHRA VCTS BKN040CB
     FM231800 24006KT P6SM VCTS BKN040CB
     FM240100 23008KT P6SM BKN050
     FM240500 23004KT P6SM BKN090=

USA.gov is the U.S. government's official web portal to all federal, state and local government web resources and services.